Ops, North Dakota
Current Conditions -  °F | °C
As of 7:35 AM on Saturday 25 Oct 2014 (Local Time) from KGAF Reporting Station
Clear Clear  
Wind Chill: 34°   Ceiling: Unl
Heat Index: 41°   Visibility: 10mi
Dew Point: 32°   Wind: 13mph
Humidity: 70%   Direction: 270°W
Pressure: 30.02"   Gusts: NA
Location:  48.2362°N, 97.4515°W
Report Text: KGAF 251235Z AUTO 27011KT 10SM CLR 05/00 A3002 RMK AO2
Loading
Personal Weather Stations






























Interactive Weather Map
Tropical Storm Tracking
New forecast layout! Learn more

10-Day Weather Forecast

Advertisements
Track Severe Weather on mobile